Golden Iris — 3FZK4 — position and weather

sailwx.info

Track history (hours):
 
Tides and Currents Weather Stations Pressure Air Temp Water Temp Dewpoint Dewpoint Depression Visibility Wind Speed Wind Dir Waves Ship Positions

Golden Iris

Last reported at 2016-Aug-29 17:34 UTC. Time now 2016-Aug-31 00:33 UTC.
Position N 34°36' E 032°36'.

Length 163 m; draft 6 m.

Type: Passenger vessel. MMSI: 371771000.

Date/timePositionNaut miles runAvg speedWind from/ knotsBaromVisibWave heightAir tempDewpointWater temp
2016-Aug-29 17:34N 34°36' E 032°36'1212.4
2016-Aug-29 16:33N 34°32' E 032°50'1312.6
2016-Aug-29 15:33N 34°32' E 033°05'1313.4
2016-Aug-29 14:33N 34°37' E 033°20'47 2.9
2016-Aug-28 22:17N 34°02' E 033°58'7 9.5
2016-Aug-28 21:33N 33°55' E 034°01'72 7.2
2016-Aug-28 11:33N 32°56' E 034°51'6 6.1
2016-Aug-28 10:33N 32°53' E 034°57'4 4.3
2016-Aug-28 09:34N 32°49' E 035°00'0 0.1
2016-Aug-28 08:32N 32°49' E 035°00'0 0.0
2016-Aug-28 07:32N 32°49' E 035°00'0 0.0
2016-Aug-28 06:32N 32°49' E 035°00'0 0.0
2016-Aug-28 05:32N 32°49' E 035°00'0 0.0
2016-Aug-28 04:32N 32°49' E 035°00'0 0.0
2016-Aug-28 03:32N 32°49' E 035°00'1 1.4
2016-Aug-28 02:33N 32°50' E 035°01'9 8.6
2016-Aug-28 01:33N 32°54' E 034°51'9911.9
2016-Aug-27 17:14N 34°20' E 033°52'912.9
2016-Aug-27 16:33N 34°28' E 033°50'1313.3
2016-Aug-27 15:33N 34°41' E 033°46'1512.6
2016-Aug-27 14:21N 34°56' E 033°40'48 3.3
2016-Aug-26 23:32N 34°09' E 033°55'86 7.8
2016-Aug-26 12:31N 32°56' E 034°52'5 5.0
2016-Aug-26 11:33N 32°53' E 034°56'5 5.4
2016-Aug-26 10:33N 32°50' E 035°01'1 1.4
2016-Aug-26 09:33N 32°49' E 035°00'0 0.0
2016-Aug-26 08:33N 32°49' E 035°00'0 0.0
2016-Aug-26 07:33N 32°49' E 035°00'0 0.0
2016-Aug-26 06:33N 32°49' E 035°00'0 0.0
2016-Aug-26 04:33N 32°49' E 035°00'2 1.8
2016-Aug-26 03:34N 32°51' E 035°01'9 9.4
2016-Aug-26 02:33N 32°55' E 034°50'3812.5
2016-Aug-25 23:30N 33°02' E 034°06'1211.5
2016-Aug-25 22:28N 33°08' E 033°53'1212.8
2016-Aug-25 21:34N 33°13' E 033°41'1313.3
2016-Aug-25 20:34N 33°20' E 033°28'1413.7
2016-Aug-25 19:34N 33°29' E 033°15'1413.6
2016-Aug-25 18:31N 33°37' E 033°01'1313.4
2016-Aug-25 17:34N 33°45' E 032°49'1413.6
2016-Aug-25 16:33N 33°53' E 032°36'1413.7
2016-Aug-25 15:34N 34°01' E 032°23'1413.9
2016-Aug-25 14:33N 34°10' E 032°09'1414.2
2016-Aug-25 13:33N 34°18' E 031°56'1414.2
2016-Aug-25 12:33N 34°26' E 031°42'  
2016-Aug-22 04:31N 35°05' E 030°48'5413.6
2016-Aug-22 00:33N 34°35' E 031°43'6513.0
2016-Aug-21 19:33N 33°60' E 032°49'1312.9
2016-Aug-21 18:34N 33°53' E 033°02'1312.9
2016-Aug-21 17:33N 33°46' E 033°15'1312.7
2016-Aug-21 16:34N 33°39' E 033°28'1312.8
2016-Aug-21 15:33N 33°32' E 033°41'1313.0
2016-Aug-21 14:33N 33°25' E 033°54'1413.3
2016-Aug-21 13:31N 33°18' E 034°08'1313.2
2016-Aug-21 12:30N 33°12' E 034°23'1313.3
2016-Aug-21 11:32N 33°06' E 034°36'1313.5
2016-Aug-21 10:33N 32°59' E 034°49'1312.7
2016-Aug-21 09:33N 32°51' E 035°01'2 1.6
2016-Aug-21 08:33N 32°49' E 035°00'0 0.0
2016-Aug-21 07:33N 32°49' E 035°00'0 0.0
2016-Aug-21 06:33N 32°49' E 035°00'0 0.0
2016-Aug-21 05:33N 32°49' E 035°00'0 0.0
2016-Aug-21 04:33N 32°49' E 035°00'0 0.0
2016-Aug-21 03:33N 32°49' E 035°00'1 1.3
2016-Aug-21 02:33N 32°50' E 035°01'9 9.2
2016-Aug-21 01:33N 32°53' E 034°51'1111.3
2016-Aug-21 00:32N 32°57' E 034°38'1211.8
2016-Aug-20 23:33N 33°05' E 034°28'1313.0
2016-Aug-20 22:33N 33°15' E 034°19'1313.0
2016-Aug-20 21:32N 33°27' E 034°12'1312.5
2016-Aug-20 20:31N 33°38' E 034°05'1312.6
2016-Aug-20 19:29N 33°51' E 033°60'1212.8
2016-Aug-20 18:32N 34°03' E 033°56'1312.8
2016-Aug-20 17:33N 34°15' E 033°53'1313.0
2016-Aug-20 16:32N 34°28' E 033°48'1313.2
2016-Aug-20 15:33N 34°40' E 033°45'1313.0
2016-Aug-20 14:33N 34°53' E 033°41'4 3.4
2016-Aug-20 13:30N 34°56' E 033°39'0 0.0
2016-Aug-20 12:33N 34°56' E 033°38'0 0.0
2016-Aug-20 11:31N 34°56' E 033°39'0 0.0
2016-Aug-20 10:28N 34°56' E 033°39'0 0.0
2016-Aug-20 09:31N 34°56' E 033°38'0 0.0
2016-Aug-20 08:31N 34°56' E 033°39'12 2.4
2016-Aug-20 03:29N 34°45' E 033°46'1510.3
2016-Aug-20 02:03N 34°32' E 033°53'5 9.8
2016-Aug-20 01:31N 34°27' E 033°54'9 9.8
2016-Aug-20 00:34N 34°18' E 033°57'8 7.5
2016-Aug-19 23:33N 34°10' E 033°55'9 9.2
2016-Aug-19 22:33N 34°01' E 033°54'7 7.4
2016-Aug-19 21:34N 33°54' E 033°57'11 9.3
2016-Aug-19 20:20N 33°44' E 034°04'16 9.3
2016-Aug-19 18:33N 33°31' E 034°15'  
Track history (hours):
 
Tides and Currents Weather Stations Pressure Air Temp Water Temp Dewpoint Dewpoint Depression Visibility Wind Speed Wind Dir Waves Ship Positions

Golden Iris

Last reported at 2016-Aug-29 17:34 UTC. Time now 2016-Aug-31 00:33 UTC.
Position N 34°36' E 032°36'.

Length 163 m; draft 6 m.

Type: Passenger vessel. MMSI: 371771000.

Date/timePositionNaut miles runAvg speedWind from/ knotsBaromVisibWave heightAir tempDewpointWater temp
2016-Aug-29 17:34N 34°36' E 032°36'1212.4
2016-Aug-29 16:33N 34°32' E 032°50'1312.6
2016-Aug-29 15:33N 34°32' E 033°05'1313.4
2016-Aug-29 14:33N 34°37' E 033°20'47 2.9
2016-Aug-28 22:17N 34°02' E 033°58'7 9.5
2016-Aug-28 21:33N 33°55' E 034°01'72 7.2
2016-Aug-28 11:33N 32°56' E 034°51'6 6.1
2016-Aug-28 10:33N 32°53' E 034°57'4 4.3
2016-Aug-28 09:34N 32°49' E 035°00'0 0.1
2016-Aug-28 08:32N 32°49' E 035°00'0 0.0
2016-Aug-28 07:32N 32°49' E 035°00'0 0.0
2016-Aug-28 06:32N 32°49' E 035°00'0 0.0
2016-Aug-28 05:32N 32°49' E 035°00'0 0.0
2016-Aug-28 04:32N 32°49' E 035°00'0 0.0
2016-Aug-28 03:32N 32°49' E 035°00'1 1.4
2016-Aug-28 02:33N 32°50' E 035°01'9 8.6
2016-Aug-28 01:33N 32°54' E 034°51'9911.9
2016-Aug-27 17:14N 34°20' E 033°52'912.9
2016-Aug-27 16:33N 34°28' E 033°50'1313.3
2016-Aug-27 15:33N 34°41' E 033°46'1512.6
2016-Aug-27 14:21N 34°56' E 033°40'48 3.3
2016-Aug-26 23:32N 34°09' E 033°55'86 7.8
2016-Aug-26 12:31N 32°56' E 034°52'5 5.0
2016-Aug-26 11:33N 32°53' E 034°56'5 5.4
2016-Aug-26 10:33N 32°50' E 035°01'1 1.4
2016-Aug-26 09:33N 32°49' E 035°00'0 0.0
2016-Aug-26 08:33N 32°49' E 035°00'0 0.0
2016-Aug-26 07:33N 32°49' E 035°00'0 0.0
2016-Aug-26 06:33N 32°49' E 035°00'0 0.0
2016-Aug-26 04:33N 32°49' E 035°00'2 1.8
2016-Aug-26 03:34N 32°51' E 035°01'9 9.4
2016-Aug-26 02:33N 32°55' E 034°50'3812.5
2016-Aug-25 23:30N 33°02' E 034°06'1211.5
2016-Aug-25 22:28N 33°08' E 033°53'1212.8
2016-Aug-25 21:34N 33°13' E 033°41'1313.3
2016-Aug-25 20:34N 33°20' E 033°28'1413.7
2016-Aug-25 19:34N 33°29' E 033°15'1413.6
2016-Aug-25 18:31N 33°37' E 033°01'1313.4
2016-Aug-25 17:34N 33°45' E 032°49'1413.6
2016-Aug-25 16:33N 33°53' E 032°36'1413.7
2016-Aug-25 15:34N 34°01' E 032°23'1413.9
2016-Aug-25 14:33N 34°10' E 032°09'1414.2
2016-Aug-25 13:33N 34°18' E 031°56'1414.2
2016-Aug-25 12:33N 34°26' E 031°42'  
2016-Aug-22 04:31N 35°05' E 030°48'5413.6
2016-Aug-22 00:33N 34°35' E 031°43'6513.0
2016-Aug-21 19:33N 33°60' E 032°49'1312.9
2016-Aug-21 18:34N 33°53' E 033°02'1312.9
2016-Aug-21 17:33N 33°46' E 033°15'1312.7
2016-Aug-21 16:34N 33°39' E 033°28'1312.8
2016-Aug-21 15:33N 33°32' E 033°41'1313.0
2016-Aug-21 14:33N 33°25' E 033°54'1413.3
2016-Aug-21 13:31N 33°18' E 034°08'1313.2
2016-Aug-21 12:30N 33°12' E 034°23'1313.3
2016-Aug-21 11:32N 33°06' E 034°36'1313.5
2016-Aug-21 10:33N 32°59' E 034°49'1312.7
2016-Aug-21 09:33N 32°51' E 035°01'2 1.6
2016-Aug-21 08:33N 32°49' E 035°00'0 0.0
2016-Aug-21 07:33N 32°49' E 035°00'0 0.0
2016-Aug-21 06:33N 32°49' E 035°00'0 0.0
2016-Aug-21 05:33N 32°49' E 035°00'0 0.0
2016-Aug-21 04:33N 32°49' E 035°00'0 0.0
2016-Aug-21 03:33N 32°49' E 035°00'1 1.3
2016-Aug-21 02:33N 32°50' E 035°01'9 9.2
2016-Aug-21 01:33N 32°53' E 034°51'1111.3
2016-Aug-21 00:32N 32°57' E 034°38'1211.8
2016-Aug-20 23:33N 33°05' E 034°28'1313.0
2016-Aug-20 22:33N 33°15' E 034°19'1313.0
2016-Aug-20 21:32N 33°27' E 034°12'1312.5
2016-Aug-20 20:31N 33°38' E 034°05'1312.6
2016-Aug-20 19:29N 33°51' E 033°60'1212.8
2016-Aug-20 18:32N 34°03' E 033°56'1312.8
2016-Aug-20 17:33N 34°15' E 033°53'1313.0
2016-Aug-20 16:32N 34°28' E 033°48'1313.2
2016-Aug-20 15:33N 34°40' E 033°45'1313.0
2016-Aug-20 14:33N 34°53' E 033°41'4 3.4
2016-Aug-20 13:30N 34°56' E 033°39'0 0.0
2016-Aug-20 12:33N 34°56' E 033°38'0 0.0
2016-Aug-20 11:31N 34°56' E 033°39'0 0.0
2016-Aug-20 10:28N 34°56' E 033°39'0 0.0
2016-Aug-20 09:31N 34°56' E 033°38'0 0.0
2016-Aug-20 08:31N 34°56' E 033°39'12 2.4
2016-Aug-20 03:29N 34°45' E 033°46'1510.3
2016-Aug-20 02:03N 34°32' E 033°53'5 9.8
2016-Aug-20 01:31N 34°27' E 033°54'9 9.8
2016-Aug-20 00:34N 34°18' E 033°57'8 7.5
2016-Aug-19 23:33N 34°10' E 033°55'9 9.2
2016-Aug-19 22:33N 34°01' E 033°54'7 7.4
2016-Aug-19 21:34N 33°54' E 033°57'11 9.3
2016-Aug-19 20:20N 33°44' E 034°04'16 9.3
2016-Aug-19 18:33N 33°31' E 034°15'  

Dump ship's entire track history